sensor_id;sensor_type;location;lat;lon;timestamp;pressure;altitude;pressure_sealevel;temperature;humidity
71774;BME280;59607;52.130;5.430;2023-11-25T00:00:24;101389.41;;;4.32;100.00
71774;BME280;59607;52.130;5.430;2023-11-25T00:02:55;101395.09;;;4.38;100.00
71774;BME280;59607;52.130;5.430;2023-11-25T00:05:27;101393.09;;;4.41;100.00
71774;BME280;59607;52.130;5.430;2023-11-25T00:07:53;101382.38;;;4.46;100.00
71774;BME280;59607;52.130;5.430;2023-11-25T00:10:19;101387.88;;;4.54;100.00
71774;BME280;59607;52.130;5.430;2023-11-25T00:12:51;101381.75;;;4.55;100.00
71774;BME280;59607;52.130;5.430;2023-11-25T00:15:18;101392.91;;;4.69;100.00
71774;BME280;59607;52.130;5.430;2023-11-25T00:17:50;101386.13;;;4.79;100.00
71774;BME280;59607;52.130;5.430;2023-11-25T00:20:23;101378.38;;;4.91;100.00
71774;BME280;59607;52.130;5.430;2023-11-25T00:22:57;101384.78;;;4.98;100.00
71774;BME280;59607;52.130;5.430;2023-11-25T00:25:23;101385.28;;;5.03;100.00
71774;BME280;59607;52.130;5.430;2023-11-25T00:27:54;101385.78;;;5.09;100.00
71774;BME280;59607;52.130;5.430;2023-11-25T00:30:25;101378.56;;;5.12;100.00
71774;BME280;59607;52.130;5.430;2023-11-25T00:32:52;101383.66;;;5.14;100.00
71774;BME280;59607;52.130;5.430;2023-11-25T00:35:24;101390.06;;;5.21;100.00
71774;BME280;59607;52.130;5.430;2023-11-25T00:37:54;101392.19;;;5.27;100.00
71774;BME280;59607;52.130;5.430;2023-11-25T00:40:21;101404.16;;;5.30;100.00
71774;BME280;59607;52.130;5.430;2023-11-25T00:42:52;101410.66;;;5.36;100.00
71774;BME280;59607;52.130;5.430;2023-11-25T00:45:18;101402.41;;;5.42;100.00
71774;BME280;59607;52.130;5.430;2023-11-25T00:47:59;101412.56;;;5.45;100.00
71774;BME280;59607;52.130;5.430;2023-11-25T00:50:46;101412.25;;;5.50;100.00
71774;BME280;59607;52.130;5.430;2023-11-25T00:53:20;101406.81;;;5.53;100.00
71774;BME280;59607;52.130;5.430;2023-11-25T00:56:01;101407.63;;;5.53;100.00
71774;BME280;59607;52.130;5.430;2023-11-25T00:58:43;101411.91;;;5.54;100.00
71774;BME280;59607;52.130;5.430;2023-11-25T01:01:09;101422.91;;;5.58;100.00
71774;BME280;59607;52.130;5.430;2023-11-25T01:03:37;101416.88;;;5.58;100.00
71774;BME280;59607;52.130;5.430;2023-11-25T01:06:07;101405.03;;;5.53;100.00
71774;BME280;59607;52.130;5.430;2023-11-25T01:08:40;101404.09;;;5.43;100.00
71774;BME280;59607;52.130;5.430;2023-11-25T01:11:06;101398.50;;;5.36;100.00
71774;BME280;59607;52.130;5.430;2023-11-25T01:13:33;101401.22;;;5.35;100.00
71774;BME280;59607;52.130;5.430;2023-11-25T01:15:59;101402.88;;;5.36;100.00
71774;BME280;59607;52.130;5.430;2023-11-25T01:18:29;101404.19;;;5.41;100.00
71774;BME280;59607;52.130;5.430;2023-11-25T01:20:55;101399.69;;;5.43;100.00
71774;BME280;59607;52.130;5.430;2023-11-25T01:23:29;101399.81;;;5.42;100.00
71774;BME280;59607;52.130;5.430;2023-11-25T01:25:56;101393.78;;;5.41;100.00
71774;BME280;59607;52.130;5.430;2023-11-25T01:28:38;101400.16;;;5.37;100.00
71774;BME280;59607;52.130;5.430;2023-11-25T01:31:08;101411.50;;;5.36;100.00
71774;BME280;59607;52.130;5.430;2023-11-25T01:33:38;101414.34;;;5.33;100.00
71774;BME280;59607;52.130;5.430;2023-11-25T01:36:14;101420.69;;;5.29;100.00
71774;BME280;59607;52.130;5.430;2023-11-25T01:38:41;101425.44;;;5.24;100.00
71774;BME280;59607;52.130;5.430;2023-11-25T01:41:07;101428.25;;;5.21;100.00
71774;BME280;59607;52.130;5.430;2023-11-25T01:43:44;101430.03;;;5.20;100.00
71774;BME280;59607;52.130;5.430;2023-11-25T01:46:41;101426.59;;;5.19;100.00
71774;BME280;59607;52.130;5.430;2023-11-25T01:49:14;101433.66;;;5.17;100.00
71774;BME280;59607;52.130;5.430;2023-11-25T01:51:44;101424.88;;;5.07;100.00
71774;BME280;59607;52.130;5.430;2023-11-25T01:54:20;101423.66;;;5.00;100.00
71774;BME280;59607;52.130;5.430;2023-11-25T01:56:55;101425.06;;;4.92;100.00
71774;BME280;59607;52.130;5.430;2023-11-25T01:59:29;101423.81;;;4.85;100.00
71774;BME280;59607;52.130;5.430;2023-11-25T02:01:59;101426.53;;;4.84;100.00
71774;BME280;59607;52.130;5.430;2023-11-25T02:04:32;101420.63;;;4.81;100.00
71774;BME280;59607;52.130;5.430;2023-11-25T02:07:00;101422.72;;;4.76;100.00
71774;BME280;59607;52.130;5.430;2023-11-25T02:09:33;101421.28;;;4.72;100.00
71774;BME280;59607;52.130;5.430;2023-11-25T02:12:02;101417.97;;;4.70;100.00
71774;BME280;59607;52.130;5.430;2023-11-25T02:14:29;101407.28;;;4.62;100.00
71774;BME280;59607;52.130;5.430;2023-11-25T02:16:56;101414.47;;;4.58;100.00
71774;BME280;59607;52.130;5.430;2023-11-25T02:19:23;101415.63;;;4.54;100.00
71774;BME280;59607;52.130;5.430;2023-11-25T02:21:53;101410.66;;;4.51;100.00
71774;BME280;59607;52.130;5.430;2023-11-25T02:24:20;101415.00;;;4.50;100.00
71774;BME280;59607;52.130;5.430;2023-11-25T02:26:46;101414.41;;;4.47;100.00
71774;BME280;59607;52.130;5.430;2023-11-25T02:29:22;101412.75;;;4.46;100.00
71774;BME280;59607;52.130;5.430;2023-11-25T02:31:48;101408.56;;;4.43;100.00
71774;BME280;59607;52.130;5.430;2023-11-25T02:34:21;101397.47;;;4.41;100.00
71774;BME280;59607;52.130;5.430;2023-11-25T02:36:50;101398.72;;;4.35;100.00
71774;BME280;59607;52.130;5.430;2023-11-25T02:39:20;101397.09;;;4.34;100.00
71774;BME280;59607;52.130;5.430;2023-11-25T02:41:51;101408.50;;;4.31;100.00
71774;BME280;59607;52.130;5.430;2023-11-25T02:44:21;101397.63;;;4.26;100.00
71774;BME280;59607;52.130;5.430;2023-11-25T02:46:53;101391.47;;;4.27;100.00
71774;BME280;59607;52.130;5.430;2023-11-25T02:49:19;101390.75;;;4.25;100.00
71774;BME280;59607;52.130;5.430;2023-11-25T02:51:54;101387.44;;;4.23;100.00
71774;BME280;59607;52.130;5.430;2023-11-25T02:54:22;101387.44;;;4.23;100.00
71774;BME280;59607;52.130;5.430;2023-11-25T02:56:51;101391.06;;;4.20;100.00
71774;BME280;59607;52.130;5.430;2023-11-25T02:59:18;101387.78;;;4.18;100.00
71774;BME280;59607;52.130;5.430;2023-11-25T03:01:45;101387.97;;;4.15;100.00
71774;BME280;59607;52.130;5.430;2023-11-25T03:04:25;101386.22;;;4.16;100.00
71774;BME280;59607;52.130;5.430;2023-11-25T03:07:02;101383.59;;;4.16;100.00
71774;BME280;59607;52.130;5.430;2023-11-25T03:09:31;101380.19;;;4.15;100.00
71774;BME280;59607;52.130;5.430;2023-11-25T03:12:01;101390.38;;;4.18;100.00
71774;BME280;59607;52.130;5.430;2023-11-25T03:14:30;101382.59;;;4.18;100.00
71774;BME280;59607;52.130;5.430;2023-11-25T03:16:57;101382.66;;;4.17;100.00
71774;BME280;59607;52.130;5.430;2023-11-25T03:19:41;101391.19;;;4.19;100.00
71774;BME280;59607;52.130;5.430;2023-11-25T03:22:18;101391.81;;;4.23;100.00
71774;BME280;59607;52.130;5.430;2023-11-25T03:24:53;101388.88;;;4.27;100.00
71774;BME280;59607;52.130;5.430;2023-11-25T03:27:20;101385.84;;;4.34;100.00
71774;BME280;59607;52.130;5.430;2023-11-25T03:29:49;101383.56;;;4.42;100.00
71774;BME280;59607;52.130;5.430;2023-11-25T03:32:20;101376.03;;;4.50;100.00
71774;BME280;59607;52.130;5.430;2023-11-25T03:34:47;101381.53;;;4.59;100.00
71774;BME280;59607;52.130;5.430;2023-11-25T03:37:19;101376.00;;;4.63;100.00
71774;BME280;59607;52.130;5.430;2023-11-25T03:39:45;101374.50;;;4.72;100.00
71774;BME280;59607;52.130;5.430;2023-11-25T03:42:12;101377.59;;;4.77;100.00
71774;BME280;59607;52.130;5.430;2023-11-25T03:44:47;101381.53;;;4.83;100.00
71774;BME280;59607;52.130;5.430;2023-11-25T03:47:17;101379.75;;;4.84;100.00
71774;BME280;59607;52.130;5.430;2023-11-25T03:49:44;101387.31;;;4.87;100.00
71774;BME280;59607;52.130;5.430;2023-11-25T03:52:11;101388.78;;;4.91;100.00
71774;BME280;59607;52.130;5.430;2023-11-25T03:54:38;101386.91;;;4.93;100.00
71774;BME280;59607;52.130;5.430;2023-11-25T03:57:10;101383.13;;;4.97;100.00
71774;BME280;59607;52.130;5.430;2023-11-25T03:59:36;101390.47;;;5.03;100.00
71774;BME280;59607;52.130;5.430;2023-11-25T04:02:10;101388.03;;;5.13;100.00
71774;BME280;59607;52.130;5.430;2023-11-25T04:04:37;101395.38;;;5.19;100.00
71774;BME280;59607;52.130;5.430;2023-11-25T04:07:04;101389.72;;;5.26;100.00
71774;BME280;59607;52.130;5.430;2023-11-25T04:09:39;101392.09;;;5.29;100.00
71774;BME280;59607;52.130;5.430;2023-11-25T04:12:07;101394.13;;;5.37;100.00
71774;BME280;59607;52.130;5.430;2023-11-25T04:14:39;101396.50;;;5.40;100.00
71774;BME280;59607;52.130;5.430;2023-11-25T04:17:06;101395.31;;;5.44;100.00
71774;BME280;59607;52.130;5.430;2023-11-25T04:19:41;101404.91;;;5.55;100.00
71774;BME280;59607;52.130;5.430;2023-11-25T04:22:07;101414.78;;;5.63;100.00
71774;BME280;59607;52.130;5.430;2023-11-25T04:24:39;101427.56;;;5.66;100.00
71774;BME280;59607;52.130;5.430;2023-11-25T04:27:08;101423.28;;;5.65;100.00
71774;BME280;59607;52.130;5.430;2023-11-25T04:29:40;101407.28;;;5.58;100.00
71774;BME280;59607;52.130;5.430;2023-11-25T04:32:12;101402.91;;;5.47;100.00
71774;BME280;59607;52.130;5.430;2023-11-25T04:34:41;101396.03;;;5.35;100.00
71774;BME280;59607;52.130;5.430;2023-11-25T04:37:10;101395.75;;;5.26;100.00
71774;BME280;59607;52.130;5.430;2023-11-25T04:39:37;101394.44;;;5.21;100.00
71774;BME280;59607;52.130;5.430;2023-11-25T04:42:06;101394.06;;;5.14;100.00
71774;BME280;59607;52.130;5.430;2023-11-25T04:44:33;101392.38;;;5.13;100.00
71774;BME280;59607;52.130;5.430;2023-11-25T04:47:00;101392.38;;;5.13;100.00
71774;BME280;59607;52.130;5.430;2023-11-25T04:49:27;101396.56;;;5.15;100.00
71774;BME280;59607;52.130;5.430;2023-11-25T04:51:53;101392.88;;;5.18;100.00
71774;BME280;59607;52.130;5.430;2023-11-25T04:54:22;101395.94;;;5.12;100.00
71774;BME280;59607;52.130;5.430;2023-11-25T04:56:49;101403.00;;;5.10;100.00
71774;BME280;59607;52.130;5.430;2023-11-25T04:59:15;101390.00;;;5.10;100.00
71774;BME280;59607;52.130;5.430;2023-11-25T05:01:42;101387.75;;;5.05;100.00
71774;BME280;59607;52.130;5.430;2023-11-25T05:04:09;101372.72;;;4.97;100.00
71774;BME280;59607;52.130;5.430;2023-11-25T05:06:45;101369.75;;;4.90;100.00
71774;BME280;59607;52.130;5.430;2023-11-25T05:09:13;101370.31;;;4.82;100.00
71774;BME280;59607;52.130;5.430;2023-11-25T05:11:42;101363.78;;;4.77;100.00
71774;BME280;59607;52.130;5.430;2023-11-25T05:14:09;101374.06;;;4.78;100.00
71774;BME280;59607;52.130;5.430;2023-11-25T05:16:35;101376.34;;;4.83;100.00
71774;BME280;59607;52.130;5.430;2023-11-25T05:19:02;101365.81;;;4.85;100.00
71774;BME280;59607;52.130;5.430;2023-11-25T05:21:35;101359.28;;;4.79;100.00
71774;BME280;59607;52.130;5.430;2023-11-25T05:24:05;101356.31;;;4.72;100.00
71774;BME280;59607;52.130;5.430;2023-11-25T05:26:37;101353.34;;;4.65;100.00
71774;BME280;59607;52.130;5.430;2023-11-25T05:29:04;101350.84;;;4.64;100.00
71774;BME280;59607;52.130;5.430;2023-11-25T05:31:45;101350.03;;;4.63;100.00
71774;BME280;59607;52.130;5.430;2023-11-25T05:34:12;101348.25;;;4.64;100.00
71774;BME280;59607;52.130;5.430;2023-11-25T05:36:45;101360.31;;;4.65;100.00
71774;BME280;59607;52.130;5.430;2023-11-25T05:39:11;101351.78;;;4.63;100.00
71774;BME280;59607;52.130;5.430;2023-11-25T05:41:45;101335.69;;;4.57;100.00
71774;BME280;59607;52.130;5.430;2023-11-25T05:44:11;101336.75;;;4.55;100.00
71774;BME280;59607;52.130;5.430;2023-11-25T05:46:38;101333.66;;;4.50;100.00
71774;BME280;59607;52.130;5.430;2023-11-25T05:49:07;101332.22;;;4.46;100.00
71774;BME280;59607;52.130;5.430;2023-11-25T05:51:36;101341.88;;;4.43;100.00
71774;BME280;59607;52.130;5.430;2023-11-25T05:54:05;101346.34;;;4.41;100.00
71774;BME280;59607;52.130;5.430;2023-11-25T05:56:40;101339.63;;;4.39;100.00
71774;BME280;59607;52.130;5.430;2023-11-25T05:59:07;101326.84;;;4.36;100.00
71774;BME280;59607;52.130;5.430;2023-11-25T06:01:42;101332.16;;;4.34;100.00
71774;BME280;59607;52.130;5.430;2023-11-25T06:04:09;101325.41;;;4.31;100.00
71774;BME280;59607;52.130;5.430;2023-11-25T06:06:36;101320.81;;;4.35;100.00
71774;BME280;59607;52.130;5.430;2023-11-25T06:09:09;101335.97;;;4.41;100.00
71774;BME280;59607;52.130;5.430;2023-11-25T06:11:44;101331.59;;;4.42;100.00
71774;BME280;59607;52.130;5.430;2023-11-25T06:14:14;101320.25;;;4.43;100.00
71774;BME280;59607;52.130;5.430;2023-11-25T06:16:44;101322.06;;;4.42;100.00
71774;BME280;59607;52.130;5.430;2023-11-25T06:19:14;101309.88;;;4.43;100.00
71774;BME280;59607;52.130;5.430;2023-11-25T06:21:44;101310.81;;;4.42;100.00
71774;BME280;59607;52.130;5.430;2023-11-25T06:24:14;101308.72;;;4.47;100.00
71774;BME280;59607;52.130;5.430;2023-11-25T06:26:47;101312.41;;;4.56;100.00
71774;BME280;59607;52.130;5.430;2023-11-25T06:29:17;101316.63;;;4.70;100.00
71774;BME280;59607;52.130;5.430;2023-11-25T06:31:51;101322.09;;;4.78;100.00
71774;BME280;59607;52.130;5.430;2023-11-25T06:34:17;101341.50;;;4.86;100.00
71774;BME280;59607;52.130;5.430;2023-11-25T06:36:49;101326.38;;;4.91;100.00
71774;BME280;59607;52.130;5.430;2023-11-25T06:39:18;101323.56;;;4.94;100.00
71774;BME280;59607;52.130;5.430;2023-11-25T06:41:52;101324.41;;;4.94;100.00
71774;BME280;59607;52.130;5.430;2023-11-25T06:44:21;101323.22;;;4.99;100.00
71774;BME280;59607;52.130;5.430;2023-11-25T06:46:51;101313.66;;;4.99;100.00
71774;BME280;59607;52.130;5.430;2023-11-25T06:49:20;101320.38;;;5.02;100.00
71774;BME280;59607;52.130;5.430;2023-11-25T06:51:46;101319.94;;;5.08;100.00
71774;BME280;59607;52.130;5.430;2023-11-25T06:54:16;101312.13;;;5.08;100.00
71774;BME280;59607;52.130;5.430;2023-11-25T06:56:43;101319.59;;;5.13;100.00
71774;BME280;59607;52.130;5.430;2023-11-25T06:59:09;101327.16;;;5.16;100.00
71774;BME280;59607;52.130;5.430;2023-11-25T07:01:36;101333.78;;;5.20;100.00
71774;BME280;59607;52.130;5.430;2023-11-25T07:04:08;101328.47;;;5.22;100.00
71774;BME280;59607;52.130;5.430;2023-11-25T07:06:39;101332.84;;;5.21;100.00
71774;BME280;59607;52.130;5.430;2023-11-25T07:09:06;101332.84;;;5.21;100.00
71774;BME280;59607;52.130;5.430;2023-11-25T07:11:35;101320.91;;;5.18;100.00
71774;BME280;59607;52.130;5.430;2023-11-25T07:14:04;101315.94;;;5.15;100.00
71774;BME280;59607;52.130;5.430;2023-11-25T07:16:34;101329.97;;;5.13;100.00
71774;BME280;59607;52.130;5.430;2023-11-25T07:19:00;101315.69;;;5.07;100.00
71774;BME280;59607;52.130;5.430;2023-11-25T07:21:27;101327.22;;;5.03;100.00
71774;BME280;59607;52.130;5.430;2023-11-25T07:23:54;101316.38;;;4.98;100.00
71774;BME280;59607;52.130;5.430;2023-11-25T07:26:25;101310.56;;;4.94;100.00
71774;BME280;59607;52.130;5.430;2023-11-25T07:29:01;101314.31;;;4.90;100.00
71774;BME280;59607;52.130;5.430;2023-11-25T07:31:27;101320.47;;;4.89;100.00
71774;BME280;59607;52.130;5.430;2023-11-25T07:33:58;101322.34;;;4.87;100.00
71774;BME280;59607;52.130;5.430;2023-11-25T07:36:24;101321.53;;;4.86;100.00
71774;BME280;59607;52.130;5.430;2023-11-25T07:38:51;101311.94;;;4.87;100.00
71774;BME280;59607;52.130;5.430;2023-11-25T07:41:17;101305.72;;;4.89;100.00
71774;BME280;59607;52.130;5.430;2023-11-25T07:43:48;101311.50;;;4.93;100.00
71774;BME280;59607;52.130;5.430;2023-11-25T07:46:15;101301.81;;;4.95;100.00
71774;BME280;59607;52.130;5.430;2023-11-25T07:48:45;101309.03;;;5.03;100.00
71774;BME280;59607;52.130;5.430;2023-11-25T07:51:14;101313.69;;;5.11;100.00
71774;BME280;59607;52.130;5.430;2023-11-25T07:53:42;101303.44;;;5.21;100.00
71774;BME280;59607;52.130;5.430;2023-11-25T07:56:22;101302.13;;;5.38;100.00
71774;BME280;59607;52.130;5.430;2023-11-25T07:58:57;101314.19;;;5.50;100.00
71774;BME280;59607;52.130;5.430;2023-11-25T08:01:27;101317.41;;;5.54;100.00
71774;BME280;59607;52.130;5.430;2023-11-25T08:03:54;101327.69;;;5.55;100.00
71774;BME280;59607;52.130;5.430;2023-11-25T08:06:20;101312.44;;;5.51;100.00
71774;BME280;59607;52.130;5.430;2023-11-25T08:08:52;101320.00;;;5.42;100.00
71774;BME280;59607;52.130;5.430;2023-11-25T08:11:25;101301.41;;;5.36;100.00
71774;BME280;59607;52.130;5.430;2023-11-25T08:13:58;101309.56;;;5.31;100.00
71774;BME280;59607;52.130;5.430;2023-11-25T08:16:30;101308.03;;;5.28;100.00
71774;BME280;59607;52.130;5.430;2023-11-25T08:19:02;101305.69;;;5.25;100.00
71774;BME280;59607;52.130;5.430;2023-11-25T08:21:32;101307.56;;;5.23;100.00
71774;BME280;59607;52.130;5.430;2023-11-25T08:23:59;101306.59;;;5.24;100.00
71774;BME280;59607;52.130;5.430;2023-11-25T08:26:26;101315.72;;;5.30;100.00
71774;BME280;59607;52.130;5.430;2023-11-25T08:28:54;101320.94;;;5.41;100.00
71774;BME280;59607;52.130;5.430;2023-11-25T08:31:22;101313.38;;;5.50;100.00
71774;BME280;59607;52.130;5.430;2023-11-25T08:33:49;101316.22;;;5.58;100.00
71774;BME280;59607;52.130;5.430;2023-11-25T08:36:16;101315.03;;;5.62;100.00
71774;BME280;59607;52.130;5.430;2023-11-25T08:38:46;101305.56;;;5.73;100.00
71774;BME280;59607;52.130;5.430;2023-11-25T08:41:19;101310.19;;;5.80;100.00
71774;BME280;59607;52.130;5.430;2023-11-25T08:43:45;101311.72;;;5.83;100.00
71774;BME280;59607;52.130;5.430;2023-11-25T08:46:17;101323.53;;;5.76;100.00
71774;BME280;59607;52.130;5.430;2023-11-25T08:48:47;101327.22;;;5.73;100.00
71774;BME280;59607;52.130;5.430;2023-11-25T08:51:20;101324.75;;;5.72;100.00
71774;BME280;59607;52.130;5.430;2023-11-25T08:53:55;101329.00;;;5.73;100.00
71774;BME280;59607;52.130;5.430;2023-11-25T08:56:42;101334.44;;;5.70;100.00
71774;BME280;59607;52.130;5.430;2023-11-25T08:59:15;101332.56;;;5.72;100.00
71774;BME280;59607;52.130;5.430;2023-11-25T09:01:49;101331.72;;;5.83;100.00
71774;BME280;59607;52.130;5.430;2023-11-25T09:04:19;101327.94;;;5.87;100.00
71774;BME280;59607;52.130;5.430;2023-11-25T09:06:52;101329.59;;;6.11;100.00
71774;BME280;59607;52.130;5.430;2023-11-25T09:09:20;101327.97;;;6.42;100.00
71774;BME280;59607;52.130;5.430;2023-11-25T09:11:50;101328.88;;;6.64;100.00
71774;BME280;59607;52.130;5.430;2023-11-25T09:14:16;101317.72;;;6.62;100.00
71774;BME280;59607;52.130;5.430;2023-11-25T09:16:43;101326.41;;;6.51;100.00
71774;BME280;59607;52.130;5.430;2023-11-25T09:19:10;101328.94;;;6.41;100.00
71774;BME280;59607;52.130;5.430;2023-11-25T09:21:39;101320.19;;;6.31;100.00
71774;BME280;59607;52.130;5.430;2023-11-25T09:24:07;101326.94;;;6.34;100.00
71774;BME280;59607;52.130;5.430;2023-11-25T09:26:37;101322.50;;;6.46;100.00
71774;BME280;59607;52.130;5.430;2023-11-25T09:29:04;101323.59;;;6.76;100.00
71774;BME280;59607;52.130;5.430;2023-11-25T09:31:31;101325.72;;;7.03;100.00
71774;BME280;59607;52.130;5.430;2023-11-25T09:34:01;101325.16;;;7.21;100.00
71774;BME280;59607;52.130;5.430;2023-11-25T09:36:31;101331.81;;;7.35;100.00
71774;BME280;59607;52.130;5.430;2023-11-25T09:38:57;101329.38;;;7.44;100.00
71774;BME280;59607;52.130;5.430;2023-11-25T09:41:31;101331.16;;;7.43;100.00
71774;BME280;59607;52.130;5.430;2023-11-25T09:43:57;101324.50;;;7.29;100.00
71774;BME280;59607;52.130;5.430;2023-11-25T09:46:24;101328.00;;;7.18;100.00
71774;BME280;59607;52.130;5.430;2023-11-25T09:48:54;101324.13;;;7.12;100.00
71774;BME280;59607;52.130;5.430;2023-11-25T09:51:25;101321.69;;;7.21;100.00
71774;BME280;59607;52.130;5.430;2023-11-25T09:54:02;101329.13;;;7.47;100.00
71774;BME280;59607;52.130;5.430;2023-11-25T09:56:35;101322.41;;;7.85;100.00
71774;BME280;59607;52.130;5.430;2023-11-25T09:59:04;101325.91;;;8.06;100.00
71774;BME280;59607;52.130;5.430;2023-11-25T10:01:32;101325.81;;;8.17;100.00
71774;BME280;59607;52.130;5.430;2023-11-25T10:04:02;101328.69;;;8.14;100.00
71774;BME280;59607;52.130;5.430;2023-11-25T10:06:30;101327.16;;;8.11;100.00
71774;BME280;59607;52.130;5.430;2023-11-25T10:09:01;101323.28;;;8.06;100.00
71774;BME280;59607;52.130;5.430;2023-11-25T10:11:31;101331.09;;;7.96;100.00
71774;BME280;59607;52.130;5.430;2023-11-25T10:14:02;101331.22;;;7.84;100.00
71774;BME280;59607;52.130;5.430;2023-11-25T10:16:29;101326.91;;;7.73;100.00
71774;BME280;59607;52.130;5.430;2023-11-25T10:18:56;101319.63;;;7.67;100.00
71774;BME280;59607;52.130;5.430;2023-11-25T10:21:34;101321.81;;;7.72;100.00
71774;BME280;59607;52.130;5.430;2023-11-25T10:24:14;101329.94;;;7.78;100.00
71774;BME280;59607;52.130;5.430;2023-11-25T10:26:41;101324.25;;;7.95;100.00
71774;BME280;59607;52.130;5.430;2023-11-25T10:29:12;101321.50;;;8.06;100.00
71774;BME280;59607;52.130;5.430;2023-11-25T10:31:43;101320.72;;;8.15;100.00
71774;BME280;59607;52.130;5.430;2023-11-25T10:34:12;101308.34;;;8.27;100.00
71774;BME280;59607;52.130;5.430;2023-11-25T10:36:40;101312.88;;;8.45;100.00
71774;BME280;59607;52.130;5.430;2023-11-25T10:39:07;101306.56;;;8.38;100.00
71774;BME280;59607;52.130;5.430;2023-11-25T10:41:50;101301.19;;;8.30;100.00
71774;BME280;59607;52.130;5.430;2023-11-25T10:44:40;101310.00;;;8.19;100.00
71774;BME280;59607;52.130;5.430;2023-11-25T10:47:29;101310.81;;;8.29;100.00
71774;BME280;59607;52.130;5.430;2023-11-25T10:50:10;101298.44;;;8.41;100.00
71774;BME280;59607;52.130;5.430;2023-11-25T10:52:37;101293.09;;;8.52;100.00
71774;BME280;59607;52.130;5.430;2023-11-25T10:55:11;101291.06;;;8.56;100.00
71774;BME280;59607;52.130;5.430;2023-11-25T10:57:59;101297.63;;;8.40;100.00
71774;BME280;59607;52.130;5.430;2023-11-25T11:00:33;101291.72;;;8.29;100.00
71774;BME280;59607;52.130;5.430;2023-11-25T11:03:03;101297.19;;;8.15;100.00
71774;BME280;59607;52.130;5.430;2023-11-25T11:05:50;101299.09;;;8.13;100.00
71774;BME280;59607;52.130;5.430;2023-11-25T11:08:29;101294.84;;;8.12;100.00
71774;BME280;59607;52.130;5.430;2023-11-25T11:10:59;101296.47;;;8.03;100.00
71774;BME280;59607;52.130;5.430;2023-11-25T11:13:31;101292.06;;;7.94;100.00
71774;BME280;59607;52.130;5.430;2023-11-25T11:16:09;101296.59;;;7.92;100.00
71774;BME280;59607;52.130;5.430;2023-11-25T11:18:44;101297.72;;;7.99;100.00
71774;BME280;59607;52.130;5.430;2023-11-25T11:21:12;101295.63;;;8.03;100.00
71774;BME280;59607;52.130;5.430;2023-11-25T11:23:45;101303.34;;;8.05;100.00
71774;BME280;59607;52.130;5.430;2023-11-25T11:26:24;101295.00;;;8.11;100.00
71774;BME280;59607;52.130;5.430;2023-11-25T11:34:32;101285.97;;;8.55;100.00
71774;BME280;59607;52.130;5.430;2023-11-25T11:36:59;101285.94;;;8.74;100.00
71774;BME280;59607;52.130;5.430;2023-11-25T11:45:12;101285.81;;;8.46;100.00
71774;BME280;59607;52.130;5.430;2023-11-25T11:47:59;101271.19;;;8.34;100.00
71774;BME280;59607;52.130;5.430;2023-11-25T11:50:31;101274.09;;;8.40;100.00
71774;BME280;59607;52.130;5.430;2023-11-25T11:58:15;101277.41;;;8.43;100.00
71774;BME280;59607;52.130;5.430;2023-11-25T12:03:16;101280.56;;;8.46;100.00
71774;BME280;59607;52.130;5.430;2023-11-25T12:05:47;101279.78;;;8.56;100.00
71774;BME280;59607;52.130;5.430;2023-11-25T12:08:13;101269.72;;;8.81;100.00
71774;BME280;59607;52.130;5.430;2023-11-25T12:10:40;101271.97;;;9.04;99.78
71774;BME280;59607;52.130;5.430;2023-11-25T12:13:31;101258.09;;;9.03;100.00
71774;BME280;59607;52.130;5.430;2023-11-25T12:15:59;101275.59;;;8.93;100.00
71774;BME280;59607;52.130;5.430;2023-11-25T12:18:36;101271.91;;;8.75;100.00
71774;BME280;59607;52.130;5.430;2023-11-25T12:21:04;101262.94;;;8.78;99.63
71774;BME280;59607;52.130;5.430;2023-11-25T12:23:37;101272.72;;;8.86;100.00
71774;BME280;59607;52.130;5.430;2023-11-25T12:26:21;101268.72;;;8.92;99.25
71774;BME280;59607;52.130;5.430;2023-11-25T12:29:00;101275.19;;;8.87;98.21
71774;BME280;59607;52.130;5.430;2023-11-25T12:31:27;101269.31;;;8.75;98.82
71774;BME280;59607;52.130;5.430;2023-11-25T12:33:54;101276.16;;;8.76;100.00
71774;BME280;59607;52.130;5.430;2023-11-25T12:36:23;101262.69;;;8.71;100.00
71774;BME280;59607;52.130;5.430;2023-11-25T12:38:50;101271.50;;;8.70;100.00
71774;BME280;59607;52.130;5.430;2023-11-25T12:41:19;101267.50;;;8.76;100.00
71774;BME280;59607;52.130;5.430;2023-11-25T12:44:03;101273.13;;;8.71;100.00
71774;BME280;59607;52.130;5.430;2023-11-25T12:46:33;101274.25;;;8.69;100.00
71774;BME280;59607;52.130;5.430;2023-11-25T12:49:17;101279.06;;;8.63;100.00
71774;BME280;59607;52.130;5.430;2023-11-25T12:51:44;101274.69;;;8.64;100.00
71774;BME280;59607;52.130;5.430;2023-11-25T12:54:13;101281.00;;;8.71;100.00
71774;BME280;59607;52.130;5.430;2023-11-25T12:56:41;101278.38;;;8.81;100.00
71774;BME280;59607;52.130;5.430;2023-11-25T12:59:28;101286.75;;;8.85;100.00
71774;BME280;59607;52.130;5.430;2023-11-25T13:02:12;101278.19;;;9.03;99.96
71774;BME280;59607;52.130;5.430;2023-11-25T13:04:47;101280.63;;;9.24;97.13
71774;BME280;59607;52.130;5.430;2023-11-25T13:10:04;101290.78;;;9.37;96.38
71774;BME280;59607;52.130;5.430;2023-11-25T13:12:30;101308.47;;;9.05;96.88
71774;BME280;59607;52.130;5.430;2023-11-25T13:15:04;101321.88;;;8.62;96.28
71774;BME280;59607;52.130;5.430;2023-11-25T13:17:30;101317.69;;;8.20;100.00
71774;BME280;59607;52.130;5.430;2023-11-25T13:20:00;101310.50;;;8.02;100.00
71774;BME280;59607;52.130;5.430;2023-11-25T13:22:32;101309.91;;;7.89;100.00
71774;BME280;59607;52.130;5.430;2023-11-25T13:25:05;101310.31;;;7.84;100.00
71774;BME280;59607;52.130;5.430;2023-11-25T13:27:36;101300.28;;;7.80;100.00
71774;BME280;59607;52.130;5.430;2023-11-25T13:30:02;101301.09;;;7.80;100.00